createdAt,value
2023-03-25T00:01:14.539Z,79.09
2023-03-25T00:04:21.598Z,79.26
2023-03-25T00:07:29.220Z,79.04
2023-03-25T00:10:35.796Z,78.97
2023-03-25T00:13:42.935Z,78.85
2023-03-25T00:16:53.746Z,79.34
2023-03-25T00:20:01.951Z,78.75
2023-03-25T00:23:09.405Z,78.01
2023-03-25T00:26:17.640Z,78.46
2023-03-25T00:29:29.721Z,77.78
2023-03-25T00:32:37.807Z,78.23
2023-03-25T00:35:46.853Z,78.45
2023-03-25T00:38:53.727Z,77.97
2023-03-25T00:42:00.131Z,77.74
2023-03-25T00:45:08.783Z,78.49
2023-03-25T00:48:17.765Z,78.20
2023-03-25T00:51:24.669Z,79.26
2023-03-25T00:54:35.021Z,76.80
2023-03-25T00:57:41.517Z,76.82
2023-03-25T01:00:57.224Z,75.76
2023-03-25T01:04:15.833Z,75.86
2023-03-25T01:07:26.084Z,75.50
2023-03-25T01:10:36.811Z,74.53
2023-03-25T01:13:50.378Z,75.30
2023-03-25T01:17:02.434Z,74.95
2023-03-25T01:20:16.335Z,76.28
2023-03-25T01:23:23.930Z,74.29
2023-03-25T01:26:31.377Z,75.20
2023-03-25T01:29:41.390Z,74.71
2023-03-25T01:32:56.063Z,73.77
2023-03-25T01:36:04.882Z,73.72
2023-03-25T01:39:17.785Z,73.35
2023-03-25T01:42:25.164Z,73.30
2023-03-25T01:45:33.599Z,73.74
2023-03-25T01:48:42.241Z,73.44
2023-03-25T01:51:53.067Z,71.51
2023-03-25T01:55:03.862Z,72.65
2023-03-25T01:58:15.329Z,73.04
2023-03-25T02:01:23.654Z,73.00
2023-03-25T02:04:44.653Z,72.76
2023-03-25T02:07:55.116Z,73.35
2023-03-25T02:11:07.650Z,73.16
2023-03-25T02:14:17.901Z,72.64
2023-03-25T02:17:35.870Z,71.87
2023-03-25T02:21:27.572Z,72.43
2023-03-25T02:24:54.909Z,72.32
2023-03-25T02:28:10.756Z,72.44
2023-03-25T02:31:48.380Z,73.07
2023-03-25T02:35:25.831Z,73.04
2023-03-25T02:38:41.193Z,74.81
2023-03-25T02:41:54.461Z,76.50
2023-03-25T02:45:04.995Z,76.47
2023-03-25T02:48:17.418Z,77.26
2023-03-25T02:51:27.375Z,78.82
2023-03-25T02:54:37.680Z,79.70
2023-03-25T02:57:49.710Z,80.82
2023-03-25T03:00:59.570Z,81.64
2023-03-25T03:04:07.645Z,83.12
2023-03-25T03:07:23.475Z,84.19
2023-03-25T03:10:40.580Z,84.23
2023-03-25T03:14:14.364Z,84.22
2023-03-25T03:17:26.935Z,84.41
2023-03-25T03:20:42.679Z,84.48
2023-03-25T03:24:00.901Z,84.73
2023-03-25T03:27:25.752Z,83.90
2023-03-25T03:30:39.531Z,82.67
2023-03-25T03:33:54.839Z,82.92
2023-03-25T03:37:07.773Z,83.93
2023-03-25T03:40:19.979Z,83.53
2023-03-25T03:43:31.534Z,82.54
2023-03-25T03:46:45.094Z,82.90
2023-03-25T03:50:02.347Z,83.55
2023-03-25T03:53:20.570Z,84.39
2023-03-25T03:56:32.702Z,85.02
2023-03-25T03:59:56.708Z,83.29
2023-03-25T04:03:28.265Z,80.96
2023-03-25T04:06:42.412Z,80.81
2023-03-25T04:09:57.920Z,80.66
2023-03-25T04:13:07.941Z,80.86
2023-03-25T04:16:36.069Z,80.25
2023-03-25T04:19:44.628Z,79.26
2023-03-25T04:23:00.496Z,78.78
2023-03-25T04:26:09.924Z,80.04
2023-03-25T04:29:15.962Z,79.04
2023-03-25T04:32:25.212Z,78.51
2023-03-25T04:35:34.472Z,79.31
2023-03-25T04:38:42.347Z,79.88
2023-03-25T04:41:51.568Z,79.39
2023-03-25T04:45:00.319Z,79.17
2023-03-25T04:48:15.660Z,79.83
2023-03-25T04:51:24.247Z,80.31
2023-03-25T04:54:31.017Z,80.59
2023-03-25T04:57:36.913Z,78.92
2023-03-25T05:00:43.922Z,79.39
2023-03-25T05:03:52.310Z,79.43
2023-03-25T05:07:03.690Z,79.43
2023-03-25T05:10:13.213Z,79.65
2023-03-25T05:13:21.869Z,80.06
2023-03-25T05:16:33.424Z,79.78
2023-03-25T05:19:46.272Z,78.68
2023-03-25T05:22:54.264Z,78.59
2023-03-25T05:26:00.883Z,78.09
2023-03-25T05:29:09.014Z,78.00
2023-03-25T05:32:19.317Z,77.94
2023-03-25T05:35:29.812Z,79.48
2023-03-25T05:38:38.629Z,77.24
2023-03-25T05:41:46.417Z,75.55
2023-03-25T05:44:54.264Z,73.82
2023-03-25T05:48:00.004Z,73.41
2023-03-25T05:51:10.322Z,73.73
2023-03-25T05:54:18.403Z,73.57
2023-03-25T05:57:24.871Z,72.97
2023-03-25T06:00:35.520Z,73.82
2023-03-25T06:03:43.953Z,73.24
2023-03-25T06:06:54.778Z,72.15
2023-03-25T06:10:01.447Z,73.61
2023-03-25T06:13:07.870Z,71.84
2023-03-25T06:16:13.141Z,73.23
2023-03-25T06:19:20.862Z,71.26
2023-03-25T06:22:29.122Z,71.24
2023-03-25T06:25:36.833Z,70.60
2023-03-25T06:28:42.700Z,72.53
2023-03-25T06:31:48.323Z,71.77
2023-03-25T06:34:54.724Z,71.92
2023-03-25T06:38:03.106Z,72.38
2023-03-25T06:41:18.072Z,70.17
2023-03-25T06:44:24.638Z,69.96
2023-03-25T06:47:32.371Z,69.66
2023-03-25T06:50:39.390Z,69.59
2023-03-25T06:53:47.729Z,68.44
2023-03-25T06:56:53.444Z,67.61
2023-03-25T07:00:00.699Z,67.86
2023-03-25T07:03:07.359Z,66.02
2023-03-25T07:06:18.485Z,62.09
2023-03-25T07:09:27.090Z,55.68
2023-03-25T07:12:32.622Z,52.13
2023-03-25T07:15:38.496Z,50.93
2023-03-25T07:18:44.373Z,51.89
2023-03-25T07:21:51.029Z,54.14
2023-03-25T07:25:03.625Z,56.79
2023-03-25T07:28:11.658Z,59.25
2023-03-25T07:31:19.544Z,60.45
2023-03-25T07:34:26.363Z,62.54
2023-03-25T07:37:32.265Z,62.64
2023-03-25T07:40:39.833Z,63.50
2023-03-25T07:43:47.141Z,64.20
2023-03-25T07:47:03.863Z,64.89
2023-03-25T07:50:15.147Z,65.03
2023-03-25T07:53:43.754Z,65.12
2023-03-25T07:56:55.429Z,65.79
2023-03-25T08:00:03.263Z,66.80
2023-03-25T08:03:19.645Z,66.44
2023-03-25T08:06:38.487Z,66.39
2023-03-25T08:09:56.243Z,66.84
2023-03-25T08:13:10.121Z,65.66
2023-03-25T08:16:18.264Z,64.67
2023-03-25T08:19:27.848Z,64.78
2023-03-25T08:22:34.925Z,63.65
2023-03-25T08:25:46.508Z,63.10
2023-03-25T08:29:00.511Z,63.01
2023-03-25T08:32:04.784Z,60.88
2023-03-25T08:35:08.568Z,61.99
2023-03-25T08:38:12.231Z,61.46
2023-03-25T08:41:15.072Z,61.54
2023-03-25T08:44:19.158Z,63.19
2023-03-25T08:47:21.842Z,64.64
2023-03-25T08:50:24.557Z,67.35
2023-03-25T08:53:27.735Z,68.87
2023-03-25T08:56:30.636Z,70.42
2023-03-25T08:59:35.296Z,71.23
2023-03-25T09:02:38.058Z,72.62
2023-03-25T09:05:41.387Z,73.98
2023-03-25T09:08:44.166Z,74.71
2023-03-25T09:11:53.408Z,75.85
2023-03-25T09:14:57.483Z,76.85
2023-03-25T09:18:00.614Z,75.08
2023-03-25T09:21:03.993Z,75.38
2023-03-25T09:24:09.127Z,74.48
2023-03-25T09:27:11.905Z,73.17
2023-03-25T09:30:17.265Z,71.73
2023-03-25T09:33:20.175Z,72.62
2023-03-25T09:36:23.114Z,72.21
2023-03-25T09:39:25.941Z,71.74
2023-03-25T09:43:00.811Z,72.29
2023-03-25T09:46:06.502Z,70.91
2023-03-25T09:49:15.535Z,70.82
2023-03-25T09:52:23.716Z,69.59
2023-03-25T09:55:29.577Z,69.81
2023-03-25T09:58:41.463Z,71.92
2023-03-25T10:01:50.728Z,72.35
2023-03-25T10:05:16.653Z,72.56
2023-03-25T10:08:30.325Z,68.55
2023-03-25T10:11:42.148Z,67.64
2023-03-25T10:14:55.589Z,65.57
2023-03-25T10:18:23.787Z,63.89
2023-03-25T10:21:33.896Z,65.77
2023-03-25T10:24:41.918Z,60.16
2023-03-25T10:27:47.889Z,60.46
2023-03-25T10:30:54.501Z,60.28
2023-03-25T10:34:04.337Z,57.86
2023-03-25T10:37:13.515Z,57.08
2023-03-25T10:40:25.446Z,58.49
2023-03-25T10:43:32.865Z,59.13
2023-03-25T10:46:43.720Z,59.43
2023-03-25T10:49:49.462Z,57.31
2023-03-25T10:52:55.223Z,57.67
2023-03-25T10:56:03.780Z,57.09
2023-03-25T10:59:18.407Z,57.12
2023-03-25T11:02:25.340Z,55.81
2023-03-25T11:05:30.710Z,53.65
2023-03-25T11:08:33.795Z,55.41
2023-03-25T11:11:37.806Z,56.43
2023-03-25T11:14:41.952Z,53.14
2023-03-25T11:17:47.394Z,52.06
2023-03-25T11:20:53.279Z,50.90
2023-03-25T11:23:56.206Z,50.19
2023-03-25T11:26:59.622Z,50.53
2023-03-25T11:30:05.419Z,50.99
2023-03-25T11:33:17.429Z,50.24
2023-03-25T11:36:30.033Z,49.49
2023-03-25T11:39:36.375Z,51.89
2023-03-25T11:42:42.760Z,50.27
2023-03-25T11:45:46.507Z,49.86
2023-03-25T11:48:50.111Z,50.01
2023-03-25T11:51:59.966Z,48.49
2023-03-25T11:55:03.092Z,47.07
2023-03-25T11:58:06.246Z,48.18
2023-03-25T12:01:22.765Z,50.00
2023-03-25T12:04:26.191Z,48.48
2023-03-25T12:07:31.547Z,48.19
2023-03-25T12:10:46.923Z,49.50
2023-03-25T12:14:19.003Z,48.72
2023-03-25T12:17:30.711Z,46.88
2023-03-25T12:20:41.510Z,46.96
2023-03-25T12:23:55.476Z,47.32
2023-03-25T12:27:18.648Z,49.74
2023-03-25T12:30:35.358Z,48.22
2023-03-25T12:33:56.310Z,48.33
2023-03-25T12:37:06.771Z,50.40
2023-03-25T12:40:36.786Z,52.57
2023-03-25T12:43:53.642Z,56.93
2023-03-25T12:47:23.290Z,65.54
2023-03-25T12:50:38.791Z,67.60
2023-03-25T12:53:51.297Z,64.47
2023-03-25T12:57:04.588Z,61.18
2023-03-25T13:00:21.971Z,60.52
2023-03-25T13:03:49.194Z,58.57
2023-03-25T13:07:00.602Z,54.26
2023-03-25T13:10:08.006Z,55.86
2023-03-25T13:13:17.192Z,56.33
2023-03-25T13:16:23.856Z,54.17
2023-03-25T13:19:30.338Z,53.56
2023-03-25T13:22:37.760Z,51.96
2023-03-25T13:25:49.557Z,51.31
2023-03-25T13:28:59.036Z,51.00
2023-03-25T13:32:07.773Z,52.79
2023-03-25T13:35:16.808Z,53.89
2023-03-25T13:38:27.219Z,52.05
2023-03-25T13:41:34.315Z,52.77
2023-03-25T13:44:41.489Z,52.00
2023-03-25T13:47:49.694Z,51.36
2023-03-25T13:50:53.213Z,50.58
2023-03-25T13:54:00.656Z,50.55
2023-03-25T13:57:32.517Z,50.17
2023-03-25T14:01:04.177Z,50.66
2023-03-25T14:04:36.789Z,49.04
2023-03-25T14:08:11.455Z,51.11
2023-03-25T14:11:23.294Z,55.80
2023-03-25T14:14:27.703Z,57.51
2023-03-25T14:17:35.675Z,60.18
2023-03-25T14:20:41.857Z,61.91
2023-03-25T14:23:44.994Z,62.89
2023-03-25T14:26:51.711Z,59.54
2023-03-25T14:29:58.877Z,55.79
2023-03-25T14:33:04.184Z,52.19
2023-03-25T14:36:08.000Z,53.55
2023-03-25T14:39:12.962Z,52.32
2023-03-25T14:42:29.932Z,52.11
2023-03-25T14:45:51.702Z,51.31
2023-03-25T14:49:19.373Z,50.66
2023-03-25T14:52:30.001Z,51.45
2023-03-25T14:55:35.672Z,52.61
2023-03-25T14:58:40.101Z,49.04
2023-03-25T15:01:46.783Z,48.33
2023-03-25T15:04:56.236Z,48.61
2023-03-25T15:08:02.136Z,46.63
2023-03-25T15:11:08.900Z,48.12
2023-03-25T15:14:17.182Z,46.49
2023-03-25T15:17:43.138Z,46.51
2023-03-25T15:20:47.423Z,45.12
2023-03-25T15:23:53.725Z,45.45
2023-03-25T15:26:58.225Z,45.12
2023-03-25T15:30:11.141Z,46.91
2023-03-25T15:33:26.412Z,44.83
2023-03-25T15:36:46.939Z,44.99
2023-03-25T15:40:06.532Z,45.42
2023-03-25T15:43:50.168Z,46.21
2023-03-25T15:47:31.263Z,47.42
2023-03-25T15:50:45.779Z,47.88
2023-03-25T15:54:02.239Z,47.77
2023-03-25T15:57:17.151Z,46.85
2023-03-25T16:00:26.488Z,45.85
2023-03-25T16:03:31.948Z,47.97
2023-03-25T16:06:41.311Z,45.20
2023-03-25T16:09:48.793Z,45.16
2023-03-25T16:12:51.781Z,45.18
2023-03-25T16:15:58.028Z,45.00
2023-03-25T16:19:01.788Z,45.79
2023-03-25T16:22:13.515Z,45.14
2023-03-25T16:25:21.201Z,45.12
2023-03-25T16:28:28.704Z,46.95
2023-03-25T16:31:34.900Z,46.24
2023-03-25T16:34:42.132Z,46.68
2023-03-25T16:37:45.106Z,46.75
2023-03-25T16:40:51.223Z,46.99
2023-03-25T16:43:54.961Z,47.58
2023-03-25T16:46:57.927Z,48.13
2023-03-25T16:50:02.821Z,49.07
2023-03-25T16:53:06.831Z,49.60
2023-03-25T16:56:25.131Z,49.07
2023-03-25T16:59:30.372Z,48.29
2023-03-25T17:02:41.305Z,49.57
2023-03-25T17:06:12.829Z,48.77
2023-03-25T17:09:19.001Z,49.58
2023-03-25T17:12:25.119Z,50.21
2023-03-25T17:15:28.117Z,50.61
2023-03-25T17:18:33.382Z,50.66
2023-03-25T17:21:56.626Z,51.10
2023-03-25T17:25:18.479Z,51.08
2023-03-25T17:28:29.372Z,51.93
2023-03-25T17:31:36.427Z,51.64
2023-03-25T17:34:45.539Z,51.60
2023-03-25T17:37:50.382Z,52.24
2023-03-25T17:41:02.243Z,52.82
2023-03-25T17:44:06.632Z,53.00
2023-03-25T17:47:15.412Z,52.95
2023-03-25T17:50:20.750Z,53.40
2023-03-25T17:53:23.792Z,53.22
2023-03-25T17:56:29.694Z,53.84
2023-03-25T17:59:32.675Z,53.35
2023-03-25T18:02:35.693Z,53.30
2023-03-25T18:05:38.617Z,52.79
2023-03-25T18:08:42.026Z,53.33
2023-03-25T18:11:47.749Z,53.38
2023-03-25T18:14:50.921Z,52.96
2023-03-25T18:17:55.485Z,53.14
2023-03-25T18:20:59.782Z,52.95
2023-03-25T18:24:02.606Z,52.02
2023-03-25T18:27:06.695Z,52.60
2023-03-25T18:30:29.086Z,52.16
2023-03-25T18:33:34.648Z,53.13
2023-03-25T18:36:37.571Z,54.23
2023-03-25T18:39:40.196Z,53.81
2023-03-25T18:42:44.344Z,54.36
2023-03-25T18:45:47.975Z,54.58
2023-03-25T18:48:50.816Z,53.54
2023-03-25T18:51:54.917Z,54.41
2023-03-25T18:54:57.643Z,55.23
2023-03-25T18:58:02.263Z,55.27
2023-03-25T19:01:07.503Z,56.10
2023-03-25T19:04:10.491Z,56.60
2023-03-25T19:07:13.288Z,57.49
2023-03-25T19:10:18.582Z,57.45
2023-03-25T19:13:22.788Z,57.89
2023-03-25T19:16:25.648Z,58.17
2023-03-25T19:19:28.496Z,59.06
2023-03-25T19:22:32.769Z,60.04
2023-03-25T19:25:35.551Z,59.72
2023-03-25T19:28:39.728Z,59.56
2023-03-25T19:31:43.684Z,59.65
2023-03-25T19:34:47.880Z,62.22
2023-03-25T19:37:51.750Z,64.18
2023-03-25T19:41:03.018Z,63.15
2023-03-25T19:44:07.152Z,64.22
2023-03-25T19:47:09.939Z,64.58
2023-03-25T19:50:14.435Z,66.37
2023-03-25T19:53:17.309Z,67.05
2023-03-25T19:56:20.175Z,66.76
2023-03-25T19:59:24.356Z,67.15
2023-03-25T20:02:27.236Z,64.97
2023-03-25T20:05:31.586Z,65.57
2023-03-25T20:08:34.457Z,64.81
2023-03-25T20:11:37.136Z,65.08
2023-03-25T20:14:41.679Z,64.33
2023-03-25T20:17:45.537Z,64.64
2023-03-25T20:20:48.539Z,64.88
2023-03-25T20:23:51.955Z,65.82
2023-03-25T20:26:54.762Z,65.60
2023-03-25T20:29:59.109Z,64.59
2023-03-25T20:33:02.206Z,64.82
2023-03-25T20:36:05.742Z,65.19
2023-03-25T20:39:08.784Z,65.92
2023-03-25T20:42:12.817Z,65.92
2023-03-25T20:45:19.037Z,64.94
2023-03-25T20:48:22.070Z,65.28
2023-03-25T20:51:25.774Z,66.24
2023-03-25T20:54:29.119Z,65.96
2023-03-25T20:57:32.047Z,66.29
2023-03-25T21:00:36.674Z,64.58
2023-03-25T21:03:39.423Z,64.62
2023-03-25T21:06:42.113Z,63.74
2023-03-25T21:09:45.049Z,64.05
2023-03-25T21:12:47.876Z,64.75
2023-03-25T21:15:55.687Z,64.85
2023-03-25T21:19:01.967Z,65.46
2023-03-25T21:22:05.203Z,66.00
2023-03-25T21:25:08.251Z,66.37
2023-03-25T21:28:11.431Z,67.97
2023-03-25T21:31:20.750Z,67.70
2023-03-25T21:34:23.478Z,68.11
2023-03-25T21:37:27.071Z,68.95
2023-03-25T21:40:39.872Z,69.75
2023-03-25T21:43:43.179Z,71.29
2023-03-25T21:46:47.346Z,73.11
2023-03-25T21:49:50.428Z,73.01
2023-03-25T21:52:53.169Z,74.03
2023-03-25T21:56:00.078Z,75.07
2023-03-25T21:59:03.569Z,75.16
2023-03-25T22:02:08.688Z,75.32
2023-03-25T22:05:12.489Z,74.73
2023-03-25T22:08:15.287Z,74.78
2023-03-25T22:11:20.181Z,75.16
2023-03-25T22:14:22.974Z,74.58
2023-03-25T22:17:27.507Z,74.52
2023-03-25T22:20:30.512Z,74.79
2023-03-25T22:23:33.328Z,75.70
2023-03-25T22:26:39.196Z,75.96
2023-03-25T22:29:43.036Z,76.19
2023-03-25T22:32:47.240Z,77.23
2023-03-25T22:35:51.089Z,77.90
2023-03-25T22:38:56.145Z,79.02
2023-03-25T22:41:58.938Z,79.69
2023-03-25T22:45:01.674Z,81.11
2023-03-25T22:48:06.399Z,81.32
2023-03-25T22:51:11.108Z,81.17
2023-03-25T22:54:13.881Z,81.57
2023-03-25T22:57:16.973Z,81.39
2023-03-25T23:00:19.963Z,82.41
2023-03-25T23:03:25.594Z,81.33
2023-03-25T23:06:28.665Z,81.59
2023-03-25T23:09:42.689Z,81.59
2023-03-25T23:12:45.719Z,81.02
2023-03-25T23:15:48.877Z,80.03
2023-03-25T23:18:53.396Z,79.55
2023-03-25T23:21:56.373Z,80.46
2023-03-25T23:24:59.797Z,80.14
2023-03-25T23:28:05.842Z,80.29
2023-03-25T23:31:11.494Z,79.48
2023-03-25T23:34:17.148Z,80.52
2023-03-25T23:37:19.989Z,81.33
2023-03-25T23:40:22.695Z,81.72
2023-03-25T23:43:25.531Z,80.82
2023-03-25T23:46:28.865Z,80.37
2023-03-25T23:49:33.277Z,79.99
2023-03-25T23:52:35.989Z,79.49
2023-03-25T23:55:38.945Z,79.40
2023-03-25T23:58:41.642Z,79.18
